Time;durP1;ratioP1;P1;durP2;ratioP2;P2;SDS_P1;SDS_P2;PMS_P1;PMS_P2;Temp;Humidity;BMP_temperature;BMP_pressure;BME280_temperature;BME280_humidity;BME280_pressure;Samples;Min_cycle;Max_cycle;Signal;HPM_P1;HPM_P2
2022/06/28 00:01:44;;;;;;;5.82;3.50;;;;;;;;;;10404770;28;20386;-76
2022/06/28 00:06:48;;;;;;;8.15;3.72;;;;;;;;;;10384610;28;20396;-75
2022/06/28 00:11:51;;;;;;;6.85;3.53;;;;;;;;;;10393022;28;20461;-75
2022/06/28 00:16:54;;;;;;;5.40;3.58;;;;;;;;;;10396099;28;20033;-76
2022/06/28 00:21:58;;;;;;;7.32;3.63;;;;;;;;;;10386478;28;20124;-76
2022/06/28 00:27:01;;;;;;;6.18;2.95;;;;;;;;;;10407513;28;20187;-75
2022/06/28 00:32:05;;;;;;;5.13;3.03;;;;;;;;;;10405409;28;20033;-75
2022/06/28 00:37:09;;;;;;;5.53;3.58;;;;;;;;;;10407175;28;20078;-75
2022/06/28 00:42:12;;;;;;;5.72;3.40;;;;;;;;;;10386940;28;20145;-76
2022/06/28 00:47:15;;;;;;;7.20;4.00;;;;;;;;;;10409698;28;20092;-74
2022/06/28 00:52:19;;;;;;;5.85;3.50;;;;;;;;;;10398975;28;20041;-74
2022/06/28 00:57:22;;;;;;;7.00;3.50;;;;;;;;;;10402836;28;20034;-74
2022/06/28 01:02:25;;;;;;;;;;;;;;;;;;10388323;28;20410;-75
2022/06/28 01:07:29;;;;;;;6.07;3.83;;;;;;;;;;10409881;28;19921;-74
2022/06/28 01:12:32;;;;;;;7.60;4.15;;;;;;;;;;10400842;28;20121;-74
2022/06/28 01:17:35;;;;;;;7.43;4.60;;;;;;;;;;10407870;28;20037;-74
2022/06/28 01:22:42;;;;;;;7.00;3.97;;;;;;;;;;10398980;28;20040;-75
2022/06/28 01:27:46;;;;;;;6.40;3.63;;;;;;;;;;10405642;28;20066;-74
2022/06/28 01:32:59;;;;;;;7.63;3.90;;;;;;;;;;10402223;28;20061;-75
2022/06/28 01:38:05;;;;;;;9.02;4.18;;;;;;;;;;10407210;28;20033;-74
2022/06/28 01:43:08;;;;;;;8.75;4.72;;;;;;;;;;10398449;28;20116;-73
2022/06/28 01:48:10;;;;;;;9.57;4.33;;;;;;;;;;10407698;28;20136;-74
2022/06/28 01:53:15;;;;;;;8.87;4.37;;;;;;;;;;10405704;28;20298;-71
2022/06/28 01:58:18;;;;;;;9.23;4.50;;;;;;;;;;10393881;28;20291;-73
2022/06/28 02:03:21;;;;;;;7.60;4.15;;;;;;;;;;10401471;28;20124;-75
2022/06/28 02:08:25;;;;;;;7.70;4.03;;;;;;;;;;10398826;28;20401;-75
2022/06/28 02:13:28;;;;;;;7.80;4.70;;;;;;;;;;10405225;28;20084;-75
2022/06/28 02:18:32;;;;;;;6.20;3.87;;;;;;;;;;10406596;28;20037;-74
2022/06/28 02:23:37;;;;;;;7.32;3.95;;;;;;;;;;10401353;28;20045;-75
2022/06/28 02:28:40;;;;;;;7.75;4.15;;;;;;;;;;10403901;28;20124;-74
2022/06/28 02:33:43;;;;;;;7.80;4.70;;;;;;;;;;10403494;28;20041;-74
2022/06/28 02:44:19;;;;;;;6.55;4.10;;;;;;;;;;10278837;28;20008;-72
2022/06/28 02:49:22;;;;;;;9.85;4.22;;;;;;;;;;10405749;28;20041;-75
2022/06/28 02:54:25;;;;;;;8.45;4.28;;;;;;;;;;10403521;28;20088;-74
2022/06/28 02:59:29;;;;;;;7.77;4.53;;;;;;;;;;10382785;28;20119;-74
2022/06/28 03:04:32;;;;;;;9.30;4.50;;;;;;;;;;10403756;28;20037;-74
2022/06/28 03:09:35;;;;;;;6.60;4.20;;;;;;;;;;10401830;28;20117;-73
2022/06/28 03:14:39;;;;;;;7.55;4.22;;;;;;;;;;10400327;28;20061;-75
2022/06/28 03:19:41;;;;;;;7.32;4.40;;;;;;;;;;10407534;28;20034;-74
2022/06/28 03:24:44;;;;;;;9.30;4.60;;;;;;;;;;10411103;28;20091;-74
2022/06/28 03:29:51;;;;;;;9.50;4.50;;;;;;;;;;10402858;28;20304;-75
2022/06/28 03:34:53;;;;;;;7.78;4.88;;;;;;;;;;10404348;28;20221;-75
2022/06/28 03:39:56;;;;;;;9.98;4.65;;;;;;;;;;10396828;28;20095;-75
2022/06/28 03:45:01;;;;;;;10.55;5.25;;;;;;;;;;10403016;28;20029;-74
2022/06/28 03:50:03;;;;;;;9.40;5.03;;;;;;;;;;10416593;28;20420;-74
2022/06/28 03:55:07;;;;;;;9.00;5.07;;;;;;;;;;10392518;28;20499;-74
2022/06/28 04:00:12;;;;;;;12.02;5.93;;;;;;;;;;10407130;28;20044;-74
2022/06/28 04:05:16;;;;;;;8.52;5.25;;;;;;;;;;10402649;28;20405;-73
2022/06/28 04:10:19;;;;;;;8.95;5.18;;;;;;;;;;10391635;28;20448;-72
2022/06/28 04:15:23;;;;;;;9.38;4.93;;;;;;;;;;10406564;28;20033;-75
2022/06/28 04:20:26;;;;;;;10.00;5.13;;;;;;;;;;10393936;28;20116;-74
2022/06/28 04:25:30;;;;;;;9.65;4.70;;;;;;;;;;10408615;28;20095;-75
2022/06/28 04:30:36;;;;;;;11.85;5.70;;;;;;;;;;10411123;28;20410;-75
2022/06/28 04:35:39;;;;;;;8.02;4.63;;;;;;;;;;10410631;28;20033;-75
2022/06/28 04:40:42;;;;;;;8.80;5.03;;;;;;;;;;10413227;28;20440;-74
2022/06/28 04:45:45;;;;;;;;;;;;;;;;;;10387715;28;20049;-74
2022/06/28 04:50:49;;;;;;;11.95;4.95;;;;;;;;;;10390025;28;19960;-76
2022/06/28 04:55:53;;;;;;;7.40;5.03;;;;;;;;;;10391947;28;20043;-73
2022/06/28 05:00:57;;;;;;;9.93;5.22;;;;;;;;;;10411968;28;20501;-76
2022/06/28 05:06:18;;;;;;;8.00;4.97;;;;;;;;;;10393702;28;20127;-74
2022/06/28 05:11:29;;;;;;;9.20;5.25;;;;;;;;;;10410205;28;20041;-74
2022/06/28 05:16:31;;;;;;;8.25;4.97;;;;;;;;;;10404783;28;20394;-74
2022/06/28 05:21:37;;;;;;;7.65;4.90;;;;;;;;;;10390684;28;20119;-73
2022/06/28 05:26:40;;;;;;;7.03;4.82;;;;;;;;;;10403214;28;20025;-74
2022/06/28 05:31:42;;;;;;;7.40;5.15;;;;;;;;;;10410764;28;20045;-73
2022/06/28 05:36:47;;;;;;;11.20;5.60;;;;;;;;;;10405760;28;20037;-72
2022/06/28 05:41:49;;;;;;;6.93;4.35;;;;;;;;;;10404636;28;20129;-73
2022/06/28 05:46:52;;;;;;;;;;;;;;;;;;10407214;28;20635;-75
2022/06/28 05:51:57;;;;;;;10.35;5.18;;;;;;;;;;10389911;28;19975;-74
2022/06/28 05:57:00;;;;;;;9.38;4.75;;;;;;;;;;10397063;28;20122;-74
2022/06/28 06:02:03;;;;;;;7.50;4.70;;;;;;;;;;10378072;28;20045;-73
2022/06/28 06:07:08;;;;;;;7.65;4.82;;;;;;;;;;10405611;28;20539;-75
2022/06/28 06:12:11;;;;;;;6.85;4.20;;;;;;;;;;10382074;28;20069;-75
2022/06/28 06:17:14;;;;;;;8.75;4.45;;;;;;;;;;10405053;28;20096;-75
2022/06/28 06:22:18;;;;;;;10.23;4.63;;;;;;;;;;10399977;28;20037;-75
2022/06/28 06:27:21;;;;;;;6.15;3.67;;;;;;;;;;10398362;28;20117;-74
2022/06/28 06:32:23;;;;;;;5.60;3.40;;;;;;;;;;10402510;28;20401;-74
2022/06/28 06:37:30;;;;;;;5.75;3.55;;;;;;;;;;10402883;28;20513;-74
2022/06/28 06:42:33;;;;;;;6.10;3.33;;;;;;;;;;10400673;28;20048;-74
2022/06/28 06:47:36;;;;;;;;;;;;;;;;;;10403462;28;20314;-73
2022/06/28 06:52:40;;;;;;;3.42;2.70;;;;;;;;;;10405420;28;19933;-74
2022/06/28 06:57:45;;;;;;;3.78;2.60;;;;;;;;;;10406554;28;20045;-74
2022/06/28 07:02:48;;;;;;;7.55;3.40;;;;;;;;;;10404003;28;20030;-73
2022/06/28 07:07:52;;;;;;;11.48;3.50;;;;;;;;;;10372253;28;20051;-75
2022/06/28 07:12:55;;;;;;;4.63;3.08;;;;;;;;;;10383924;28;20038;-76
2022/06/28 07:17:57;;;;;;;7.78;3.30;;;;;;;;;;10381232;28;20053;-76
2022/06/28 07:23:01;;;;;;;5.65;2.80;;;;;;;;;;10401517;28;20049;-74
2022/06/28 07:28:08;;;;;;;4.35;2.60;;;;;;;;;;10414113;28;20143;-74
2022/06/28 07:33:11;;;;;;;7.47;2.55;;;;;;;;;;10415529;28;20040;-72
2022/06/28 07:38:16;;;;;;;3.13;2.35;;;;;;;;;;10405131;28;20037;-73
2022/06/28 07:43:19;;;;;;;3.85;2.63;;;;;;;;;;10417331;28;20040;-74
2022/06/28 07:48:22;;;;;;;10.27;4.53;;;;;;;;;;10412882;28;20044;-75
2022/06/28 07:53:26;;;;;;;4.68;2.60;;;;;;;;;;10398534;28;20057;-74
2022/06/28 07:58:29;;;;;;;3.72;2.50;;;;;;;;;;10410245;28;20041;-76
2022/06/28 08:03:32;;;;;;;3.95;2.70;;;;;;;;;;10397765;28;20040;-74
2022/06/28 08:08:36;;;;;;;4.97;2.88;;;;;;;;;;10402493;28;20102;-72
2022/06/28 08:13:39;;;;;;;5.93;2.65;;;;;;;;;;10414071;28;20037;-76
2022/06/28 08:18:42;;;;;;;5.28;3.10;;;;;;;;;;10414146;28;20033;-74
2022/06/28 08:23:47;;;;;;;7.95;3.25;;;;;;;;;;10411396;28;20436;-74
2022/06/28 08:28:49;;;;;;;3.28;2.72;;;;;;;;;;10395889;28;20057;-74
2022/06/28 08:33:52;;;;;;;2.60;2.30;;;;;;;;;;10411866;28;20053;-74
2022/06/28 08:38:57;;;;;;;2.75;2.28;;;;;;;;;;10403400;28;20036;-75
2022/06/28 08:44:00;;;;;;;4.05;2.70;;;;;;;;;;10407863;28;20098;-75
2022/06/28 08:49:05;;;;;;;3.95;2.70;;;;;;;;;;10411307;28;20423;-72
2022/06/28 08:54:10;;;;;;;5.78;2.70;;;;;;;;;;10403222;28;20097;-74
2022/06/28 08:59:14;;;;;;;4.05;2.33;;;;;;;;;;10407019;28;20043;-75
2022/06/28 09:04:17;;;;;;;3.35;2.58;;;;;;;;;;10391676;28;20083;-73
2022/06/28 09:09:22;;;;;;;7.25;2.58;;;;;;;;;;10391452;28;20099;-74
2022/06/28 09:14:26;;;;;;;2.78;2.30;;;;;;;;;;10401773;28;20026;-75
2022/06/28 09:19:33;;;;;;;4.07;2.35;;;;;;;;;;10407848;28;20045;-74
2022/06/28 09:24:45;;;;;;;2.72;2.08;;;;;;;;;;10406770;28;20124;-75
2022/06/28 09:29:48;;;;;;;4.07;2.00;;;;;;;;;;10399098;28;20061;-74
2022/06/28 09:34:54;;;;;;;4.68;2.53;;;;;;;;;;10403728;28;20125;-75
2022/06/28 09:39:58;;;;;;;3.55;2.90;;;;;;;;;;10404734;28;20068;-74
2022/06/28 09:45:02;;;;;;;2.67;2.15;;;;;;;;;;10405120;28;20040;-75
2022/06/28 09:50:05;;;;;;;4.90;2.40;;;;;;;;;;10388269;28;20506;-75
2022/06/28 09:55:10;;;;;;;3.60;2.15;;;;;;;;;;10397342;28;20033;-75
2022/06/28 10:00:14;;;;;;;5.25;2.17;;;;;;;;;;10411654;28;20045;-75
2022/06/28 10:05:18;;;;;;;2.47;2.15;;;;;;;;;;10410124;28;20120;-73
2022/06/28 10:10:22;;;;;;;3.88;2.13;;;;;;;;;;10382698;28;20109;-73
2022/06/28 10:15:26;;;;;;;2.85;2.08;;;;;;;;;;10411037;28;20041;-74
2022/06/28 10:20:30;;;;;;;2.42;2.22;;;;;;;;;;10394258;28;20161;-75
2022/06/28 10:25:35;;;;;;;2.53;2.00;;;;;;;;;;10401458;28;20030;-74
2022/06/28 10:30:37;;;;;;;4.53;2.10;;;;;;;;;;10405233;28;20057;-74
2022/06/28 10:35:54;;;;;;;3.88;2.00;;;;;;;;;;10413972;28;20590;-74
2022/06/28 10:41:10;;;;;;;3.45;2.00;;;;;;;;;;10380957;28;20184;-75
2022/06/28 10:46:13;;;;;;;2.42;2.22;;;;;;;;;;10403548;28;20440;-75
2022/06/28 10:51:16;;;;;;;2.97;2.42;;;;;;;;;;10400384;28;20086;-72
2022/06/28 10:56:21;;;;;;;3.15;2.25;;;;;;;;;;10385047;28;20053;-74
2022/06/28 11:01:42;;;;;;;4.55;2.20;;;;;;;;;;10412941;28;20036;-73
2022/06/28 11:06:47;;;;;;;3.37;2.60;;;;;;;;;;10385012;28;20076;-72
2022/06/28 11:12:07;;;;;;;3.60;2.65;;;;;;;;;;10382239;28;20830;-75
2022/06/28 11:17:17;;;;;;;3.00;2.70;;;;;;;;;;10404622;28;20060;-74
2022/06/28 11:22:21;;;;;;;4.00;2.40;;;;;;;;;;10400505;28;20523;-75
2022/06/28 11:27:26;;;;;;;3.20;2.70;;;;;;;;;;10403704;28;20037;-74
2022/06/28 11:32:30;;;;;;;6.00;2.97;;;;;;;;;;10384614;28;20581;-77
2022/06/28 11:37:34;;;;;;;5.80;2.88;;;;;;;;;;10400134;28;20041;-73
2022/06/28 11:42:39;;;;;;;2.92;2.60;;;;;;;;;;10383803;28;20140;-75
2022/06/28 11:47:42;;;;;;;3.53;2.92;;;;;;;;;;10398585;28;20657;-76
2022/06/28 11:52:49;;;;;;;5.32;2.95;;;;;;;;;;10403444;28;20045;-73
2022/06/28 11:58:06;;;;;;;4.10;3.10;;;;;;;;;;10379487;28;20358;-74
2022/06/28 12:03:11;;;;;;;3.75;2.72;;;;;;;;;;10398098;28;20046;-74
2022/06/28 12:08:14;;;;;;;3.22;2.70;;;;;;;;;;10387636;28;20064;-75
2022/06/28 12:13:18;;;;;;;3.40;2.92;;;;;;;;;;10409507;28;20093;-73
2022/06/28 12:18:22;;;;;;;6.85;2.42;;;;;;;;;;10407976;28;20472;-74
2022/06/28 12:23:25;;;;;;;3.42;2.72;;;;;;;;;;10387635;28;20088;-74
2022/06/28 12:28:27;;;;;;;3.20;2.78;;;;;;;;;;10392770;28;20115;-75
2022/06/28 12:33:31;;;;;;;4.25;2.90;;;;;;;;;;10392392;28;20103;-75
2022/06/28 12:38:34;;;;;;;4.65;2.72;;;;;;;;;;10387368;28;20046;-75
2022/06/28 12:43:37;;;;;;;;;;;;;;;;;;10399539;28;20082;-73
2022/06/28 12:48:41;;;;;;;4.77;2.77;;;;;;;;;;10388422;28;19965;-73
2022/06/28 12:53:44;;;;;;;4.68;3.10;;;;;;;;;;10406571;28;20112;-73
2022/06/28 12:58:47;;;;;;;3.72;2.70;;;;;;;;;;10389619;28;20042;-74
2022/06/28 13:03:52;;;;;;;5.78;2.78;;;;;;;;;;10408095;28;20041;-75
2022/06/28 13:08:55;;;;;;;3.45;2.75;;;;;;;;;;10405077;28;20161;-74
2022/06/28 13:13:57;;;;;;;;;;;;;;;;;;10395088;28;20065;-74
2022/06/28 13:19:01;;;;;;;5.47;2.80;;;;;;;;;;10389807;28;19921;-75
2022/06/28 13:24:05;;;;;;;3.88;2.63;;;;;;;;;;10410158;28;20125;-77
2022/06/28 13:29:08;;;;;;;4.18;3.17;;;;;;;;;;10387728;28;20065;-75
2022/06/28 13:34:12;;;;;;;3.60;2.95;;;;;;;;;;10389495;28;20037;-74
2022/06/28 13:39:14;;;;;;;3.80;2.63;;;;;;;;;;10402922;28;20037;-72
2022/06/28 13:44:17;;;;;;;5.38;2.92;;;;;;;;;;10386147;28;20087;-73
2022/06/28 13:49:28;;;;;;;4.07;2.72;;;;;;;;;;10401654;28;20041;-73
2022/06/28 13:54:31;;;;;;;5.03;3.30;;;;;;;;;;10384509;28;20278;-75
2022/06/28 13:59:39;;;;;;;2.95;2.65;;;;;;;;;;10397816;28;20037;-74
2022/06/28 14:04:43;;;;;;;6.30;2.90;;;;;;;;;;10403652;28;20057;-76
2022/06/28 14:09:45;;;;;;;5.72;3.35;;;;;;;;;;10390247;28;20524;-75
2022/06/28 14:14:48;;;;;;;4.13;2.78;;;;;;;;;;10388062;28;20076;-74
2022/06/28 14:19:52;;;;;;;6.10;3.50;;;;;;;;;;10399721;28;20458;-74
2022/06/28 14:24:55;;;;;;;6.25;2.90;;;;;;;;;;10402040;28;20038;-74
2022/06/28 14:29:57;;;;;;;5.88;3.20;;;;;;;;;;10382852;28;20045;-75
2022/06/28 14:35:02;;;;;;;9.55;3.85;;;;;;;;;;10374808;28;20107;-73
2022/06/28 14:40:05;;;;;;;5.13;3.08;;;;;;;;;;10397219;28;20033;-74
2022/06/28 14:45:09;;;;;;;6.28;3.00;;;;;;;;;;10399805;28;20041;-75
2022/06/28 14:50:15;;;;;;;2.85;2.25;;;;;;;;;;10403125;28;20037;-74
2022/06/28 14:55:19;;;;;;;2.75;1.67;;;;;;;;;;10396280;28;20504;-73
2022/06/28 15:00:22;;;;;;;4.60;2.75;;;;;;;;;;10398457;28;20045;-74
2022/06/28 15:05:30;;;;;;;5.20;2.90;;;;;;;;;;10400565;28;20139;-74
2022/06/28 15:10:35;;;;;;;4.65;3.13;;;;;;;;;;10398141;28;20165;-74
2022/06/28 15:15:38;;;;;;;4.80;3.10;;;;;;;;;;10378586;28;20108;-75
2022/06/28 15:20:42;;;;;;;;;;;;;;;;;;10396851;28;20131;-72
2022/06/28 15:31:07;;;;;;;5.43;3.38;;;;;;;;;;10394441;28;20315;-76
2022/06/28 15:36:09;;;;;;;5.95;4.35;;;;;;;;;;10399002;28;20038;-74
2022/06/28 15:41:13;;;;;;;5.63;3.42;;;;;;;;;;10399611;28;20136;-75
2022/06/28 15:46:16;;;;;;;4.97;3.47;;;;;;;;;;10401795;28;20042;-74
2022/06/28 15:51:19;;;;;;;6.97;3.17;;;;;;;;;;10405714;28;20067;-73
2022/06/28 15:56:23;;;;;;;7.15;3.65;;;;;;;;;;10406853;28;20038;-74
2022/06/28 16:01:26;;;;;;;5.72;3.40;;;;;;;;;;10387632;28;20568;-73
2022/06/28 16:06:30;;;;;;;5.07;3.50;;;;;;;;;;10407138;28;20420;-75
2022/06/28 16:11:34;;;;;;;6.70;3.83;;;;;;;;;;10404334;28;20121;-75
2022/06/28 16:16:37;;;;;;;7.00;4.38;;;;;;;;;;10387617;28;22021;-74
2022/06/28 16:21:39;;;;;;;5.65;3.10;;;;;;;;;;10398446;28;20353;-73
2022/06/28 16:26:43;;;;;;;8.05;4.05;;;;;;;;;;10410261;28;20044;-74
2022/06/28 16:31:46;;;;;;;4.57;3.30;;;;;;;;;;10386694;28;20095;-72
2022/06/28 16:36:49;;;;;;;10.18;5.32;;;;;;;;;;10404530;28;20033;-75
2022/06/28 16:41:53;;;;;;;10.93;5.93;;;;;;;;;;10401096;28;20045;-73
2022/06/28 16:46:56;;;;;;;11.27;7.60;;;;;;;;;;10383081;28;20678;-74
2022/06/28 16:51:58;;;;;;;8.17;5.33;;;;;;;;;;10399412;28;20053;-75
2022/06/28 16:57:03;;;;;;;10.65;6.95;;;;;;;;;;10405070;28;20508;-74
2022/06/28 17:02:07;;;;;;;11.27;6.95;;;;;;;;;;10400196;28;20034;-74
2022/06/28 17:07:24;;;;;;;7.15;3.95;;;;;;;;;;10380130;28;20040;-72
2022/06/28 17:12:31;;;;;;;14.98;8.70;;;;;;;;;;10412544;28;20191;-75
2022/06/28 17:17:33;;;;;;;9.95;6.20;;;;;;;;;;10415950;28;20060;-73
2022/06/28 17:22:36;;;;;;;56.07;12.90;;;;;;;;;;10396732;28;20049;-71
2022/06/28 17:27:40;;;;;;;34.38;9.95;;;;;;;;;;10396053;28;20127;-74
2022/06/28 17:32:43;;;;;;;30.38;10.00;;;;;;;;;;10411578;28;20191;-73
2022/06/28 17:37:45;;;;;;;19.13;8.73;;;;;;;;;;10403105;28;20034;-80
2022/06/28 17:42:49;;;;;;;29.42;9.02;;;;;;;;;;10408029;28;20071;-75
2022/06/28 17:47:52;;;;;;;21.95;9.23;;;;;;;;;;10402648;28;20123;-73
2022/06/28 17:52:55;;;;;;;10.68;7.00;;;;;;;;;;10401639;28;20049;-75
2022/06/28 17:57:59;;;;;;;11.80;6.37;;;;;;;;;;10382893;28;20093;-75
2022/06/28 18:03:01;;;;;;;12.70;7.15;;;;;;;;;;10400296;28;20299;-74
2022/06/28 18:08:05;;;;;;;15.68;7.32;;;;;;;;;;10398526;28;20484;-74
2022/06/28 18:13:09;;;;;;;22.80;8.63;;;;;;;;;;10383099;28;20546;-74
2022/06/28 18:18:11;;;;;;;11.32;7.13;;;;;;;;;;10399122;28;20362;-75
2022/06/28 18:23:16;;;;;;;15.02;7.45;;;;;;;;;;10387202;28;20119;-75
2022/06/28 18:28:21;;;;;;;14.85;6.75;;;;;;;;;;10399697;28;20308;-74
2022/06/28 18:33:23;;;;;;;14.35;7.10;;;;;;;;;;10400516;28;20102;-76
2022/06/28 18:38:26;;;;;;;17.10;9.57;;;;;;;;;;10397511;28;20140;-76
2022/06/28 18:43:34;;;;;;;13.00;6.72;;;;;;;;;;10394394;28;20042;-75
2022/06/28 18:48:36;;;;;;;13.77;7.20;;;;;;;;;;10398412;28;20041;-73
2022/06/28 18:53:39;;;;;;;11.23;7.82;;;;;;;;;;10428655;22;20571;-78
2022/06/28 18:58:44;;;;;;;13.75;7.50;;;;;;;;;;10451711;28;20361;-78
2022/06/28 19:03:46;;;;;;;14.20;7.55;;;;;;;;;;10423388;28;20065;-78
2022/06/28 19:08:49;;;;;;;11.20;6.72;;;;;;;;;;10417836;28;20037;-80
2022/06/28 19:13:54;;;;;;;13.82;7.13;;;;;;;;;;10421779;28;20037;-77
2022/06/28 19:18:56;;;;;;;12.32;7.38;;;;;;;;;;10432503;28;20117;-77
2022/06/28 19:23:59;;;;;;;13.90;7.57;;;;;;;;;;10433055;28;20061;-77
2022/06/28 19:29:03;;;;;;;13.52;7.45;;;;;;;;;;10431506;28;20128;-76
2022/06/28 19:34:07;;;;;;;10.65;7.20;;;;;;;;;;10425763;28;20045;-78
2022/06/28 19:39:12;;;;;;;12.43;7.40;;;;;;;;;;10414155;28;20033;-77
2022/06/28 19:44:17;;;;;;;14.00;8.10;;;;;;;;;;10414050;28;20044;-77
2022/06/28 19:49:20;;;;;;;15.48;8.98;;;;;;;;;;10413900;28;20045;-79
2022/06/28 19:54:24;;;;;;;14.77;9.23;;;;;;;;;;10424485;28;20120;-76
2022/06/28 19:59:30;;;;;;;14.57;7.32;;;;;;;;;;10413244;28;20038;-77
2022/06/28 20:04:33;;;;;;;11.32;6.80;;;;;;;;;;10433653;28;20037;-76
2022/06/28 20:09:36;;;;;;;14.60;8.27;;;;;;;;;;10427470;28;20060;-76
2022/06/28 20:14:43;;;;;;;12.77;7.85;;;;;;;;;;10426845;28;20041;-74
2022/06/28 20:19:47;;;;;;;14.68;8.32;;;;;;;;;;10410065;28;20060;-73
2022/06/28 20:24:50;;;;;;;17.20;8.82;;;;;;;;;;10408202;28;20064;-77
2022/06/28 20:29:54;;;;;;;13.75;7.80;;;;;;;;;;10410632;28;20044;-76
2022/06/28 20:34:58;;;;;;;10.90;7.03;;;;;;;;;;10432046;28;20073;-76
2022/06/28 20:40:00;;;;;;;15.23;7.70;;;;;;;;;;10436646;28;20041;-76
2022/06/28 20:45:06;;;;;;;16.95;9.57;;;;;;;;;;10443376;28;20036;-77
2022/06/28 20:50:09;;;;;;;16.23;7.80;;;;;;;;;;10438018;28;20068;-76
2022/06/28 20:55:11;;;;;;;12.95;8.13;;;;;;;;;;10435846;28;20044;-80
2022/06/28 21:00:16;;;;;;;14.07;8.60;;;;;;;;;;10432647;28;20449;-75
2022/06/28 21:05:19;;;;;;;14.48;8.73;;;;;;;;;;10440250;28;20042;-76
2022/06/28 21:10:23;;;;;;;13.90;7.80;;;;;;;;;;10407440;28;20033;-77
2022/06/28 21:15:29;;;;;;;12.93;6.82;;;;;;;;;;10413285;28;20045;-74
2022/06/28 21:20:32;;;;;;;10.10;6.50;;;;;;;;;;10428552;28;20126;-75
2022/06/28 21:25:35;;;;;;;12.13;7.07;;;;;;;;;;10430969;28;20037;-77
2022/06/28 21:30:39;;;;;;;13.13;7.40;;;;;;;;;;10410666;28;20497;-75
2022/06/28 21:35:42;;;;;;;12.00;7.78;;;;;;;;;;10407527;28;20326;-77
2022/06/28 21:40:48;;;;;;;13.30;7.38;;;;;;;;;;10407427;28;20068;-78
2022/06/28 21:45:52;;;;;;;12.18;7.50;;;;;;;;;;10432095;28;20485;-74
2022/06/28 21:50:55;;;;;;;11.57;6.55;;;;;;;;;;10432104;28;20127;-78
2022/06/28 21:55:58;;;;;;;;;;;;;;;;;;10416879;28;20072;-78
2022/06/28 22:01:02;;;;;;;12.75;6.78;;;;;;;;;;10433396;28;20408;-78
2022/06/28 22:06:05;;;;;;;11.55;5.85;;;;;;;;;;10433272;28;20033;-76
2022/06/28 22:16:25;;;;;;;9.13;5.85;;;;;;;;;;10424773;28;20048;-76
2022/06/28 22:21:28;;;;;;;10.88;5.72;;;;;;;;;;10413856;28;20053;-77
2022/06/28 22:26:31;;;;;;;9.02;5.32;;;;;;;;;;10411891;28;20648;-76
2022/06/28 22:31:35;;;;;;;11.27;7.05;;;;;;;;;;10432890;28;20039;-76
2022/06/28 22:36:38;;;;;;;14.50;7.70;;;;;;;;;;10433251;28;20613;-77
2022/06/28 22:41:41;;;;;;;12.57;6.87;;;;;;;;;;10415310;28;20114;-77
2022/06/28 22:46:46;;;;;;;17.90;7.53;;;;;;;;;;10419372;28;20040;-76
2022/06/28 22:51:48;;;;;;;10.82;6.97;;;;;;;;;;10415104;28;20142;-76
2022/06/28 22:56:52;;;;;;;;;;;;;;;;;;10431938;28;20412;-76
2022/06/28 23:01:56;;;;;;;14.55;7.32;;;;;;;;;;10437399;28;20389;-77
2022/06/28 23:06:58;;;;;;;12.48;7.10;;;;;;;;;;10434332;28;20072;-77
2022/06/28 23:12:02;;;;;;;7.82;4.10;;;;;;;;;;10433396;28;20497;-75
2022/06/28 23:17:06;;;;;;;16.27;8.00;;;;;;;;;;10429746;28;20239;-78
2022/06/28 23:22:09;;;;;;;12.50;6.15;;;;;;;;;;10420755;28;20294;-77
2022/06/28 23:27:12;;;;;;;17.83;9.00;;;;;;;;;;10431908;28;20040;-76
2022/06/28 23:32:22;;;;;;;11.00;5.82;;;;;;;;;;10415403;28;20049;-76
2022/06/28 23:37:26;;;;;;;15.40;7.15;;;;;;;;;;10431677;28;20051;-77
2022/06/28 23:42:28;;;;;;;15.10;7.73;;;;;;;;;;10417122;28;21967;-76
2022/06/28 23:47:32;;;;;;;19.17;8.77;;;;;;;;;;10427495;28;20036;-77
2022/06/28 23:52:35;;;;;;;12.70;6.00;;;;;;;;;;10437532;28;20303;-76
2022/06/28 23:57:38;;;;;;;12.37;6.80;;;;;;;;;;10418383;28;20573;-76
